sensor_id;sensor_type;location;lat;lon;timestamp;pressure;altitude;pressure_sealevel;temperature;humidity
71964;BME280;59834;52.124;5.422;2023-05-23T00:01:16;101945.75;;;15.04;85.24
71964;BME280;59834;52.124;5.422;2023-05-23T00:03:47;101952.69;;;15.05;85.68
71964;BME280;59834;52.124;5.422;2023-05-23T00:06:19;101949.53;;;15.00;85.87
71964;BME280;59834;52.124;5.422;2023-05-23T00:08:46;101957.75;;;14.96;86.49
71964;BME280;59834;52.124;5.422;2023-05-23T00:11:14;101957.94;;;14.93;87.04
71964;BME280;59834;52.124;5.422;2023-05-23T00:13:45;101947.59;;;14.90;86.60
71964;BME280;59834;52.124;5.422;2023-05-23T00:16:16;101952.22;;;14.86;86.93
71964;BME280;59834;52.124;5.422;2023-05-23T00:18:45;101948.06;;;14.82;87.43
71964;BME280;59834;52.124;5.422;2023-05-23T00:21:12;101956.19;;;14.79;87.78
71964;BME280;59834;52.124;5.422;2023-05-23T00:23:45;101948.47;;;14.76;87.69
71964;BME280;59834;52.124;5.422;2023-05-23T00:26:15;101958.25;;;14.74;87.79
71964;BME280;59834;52.124;5.422;2023-05-23T00:28:43;101960.31;;;14.69;87.12
71964;BME280;59834;52.124;5.422;2023-05-23T00:31:14;101963.44;;;14.61;87.96
71964;BME280;59834;52.124;5.422;2023-05-23T00:33:46;101970.03;;;14.54;87.79
71964;BME280;59834;52.124;5.422;2023-05-23T00:36:13;101972.78;;;14.52;88.38
71964;BME280;59834;52.124;5.422;2023-05-23T00:38:42;101962.97;;;14.54;88.57
71964;BME280;59834;52.124;5.422;2023-05-23T00:41:14;101982.63;;;14.49;88.73
71964;BME280;59834;52.124;5.422;2023-05-23T00:43:50;101970.84;;;14.40;88.98
71964;BME280;59834;52.124;5.422;2023-05-23T00:46:21;101981.69;;;14.35;89.54
71964;BME280;59834;52.124;5.422;2023-05-23T00:48:48;101979.31;;;14.31;90.08
71964;BME280;59834;52.124;5.422;2023-05-23T00:51:16;101983.84;;;14.29;90.18
71964;BME280;59834;52.124;5.422;2023-05-23T00:53:47;101978.94;;;14.23;90.09
71964;BME280;59834;52.124;5.422;2023-05-23T00:56:17;101990.63;;;14.19;89.90
71964;BME280;59834;52.124;5.422;2023-05-23T00:58:44;101992.78;;;14.12;90.66
71964;BME280;59834;52.124;5.422;2023-05-23T01:01:10;101991.06;;;14.11;91.35
71964;BME280;59834;52.124;5.422;2023-05-23T01:03:38;101990.38;;;14.07;90.39
71964;BME280;59834;52.124;5.422;2023-05-23T01:06:07;101988.88;;;14.03;91.17
71964;BME280;59834;52.124;5.422;2023-05-23T01:08:34;101988.78;;;14.05;91.47
71964;BME280;59834;52.124;5.422;2023-05-23T01:11:05;101991.22;;;14.08;91.29
71964;BME280;59834;52.124;5.422;2023-05-23T01:13:43;101987.88;;;14.06;91.59
71964;BME280;59834;52.124;5.422;2023-05-23T01:16:18;101980.22;;;14.01;92.08
71964;BME280;59834;52.124;5.422;2023-05-23T01:18:56;101986.44;;;14.00;92.14
71964;BME280;59834;52.124;5.422;2023-05-23T01:21:25;101986.44;;;14.00;92.09
71964;BME280;59834;52.124;5.422;2023-05-23T01:26:51;101988.78;;;14.05;91.44
71964;BME280;59834;52.124;5.422;2023-05-23T01:29:26;101988.72;;;14.06;91.45
71964;BME280;59834;52.124;5.422;2023-05-23T01:31:57;101995.59;;;14.09;91.41
71964;BME280;59834;52.124;5.422;2023-05-23T01:34:30;101996.50;;;14.08;91.52
71964;BME280;59834;52.124;5.422;2023-05-23T01:36:58;101984.94;;;14.10;91.92
71964;BME280;59834;52.124;5.422;2023-05-23T01:39:27;101981.38;;;14.11;91.96
71964;BME280;59834;52.124;5.422;2023-05-23T01:41:59;101984.00;;;14.11;91.74
71964;BME280;59834;52.124;5.422;2023-05-23T01:44:26;101972.44;;;14.14;91.52
71964;BME280;59834;52.124;5.422;2023-05-23T01:46:55;101977.81;;;14.12;91.43
71964;BME280;59834;52.124;5.422;2023-05-23T01:49:22;101998.69;;;14.15;91.48
71964;BME280;59834;52.124;5.422;2023-05-23T01:51:52;101991.91;;;14.11;91.03
71964;BME280;59834;52.124;5.422;2023-05-23T01:54:19;102000.56;;;14.13;92.00
71964;BME280;59834;52.124;5.422;2023-05-23T01:56:49;101997.16;;;14.11;91.72
71964;BME280;59834;52.124;5.422;2023-05-23T01:59:16;101997.25;;;14.10;91.08
71964;BME280;59834;52.124;5.422;2023-05-23T02:01:44;101993.97;;;14.06;90.93
71964;BME280;59834;52.124;5.422;2023-05-23T02:04:13;101997.72;;;14.02;90.64
71964;BME280;59834;52.124;5.422;2023-05-23T02:06:46;102005.81;;;13.99;90.69
71964;BME280;59834;52.124;5.422;2023-05-23T02:09:16;102009.28;;;14.00;90.87
71964;BME280;59834;52.124;5.422;2023-05-23T02:11:46;102012.94;;;13.97;90.90
71964;BME280;59834;52.124;5.422;2023-05-23T02:14:16;102021.00;;;13.94;90.69
71964;BME280;59834;52.124;5.422;2023-05-23T02:16:47;102016.78;;;13.91;90.73
71964;BME280;59834;52.124;5.422;2023-05-23T02:19:17;102011.78;;;13.87;90.82
71964;BME280;59834;52.124;5.422;2023-05-23T02:21:45;102010.00;;;13.87;90.95
71964;BME280;59834;52.124;5.422;2023-05-23T02:24:15;102011.88;;;13.85;90.56
71964;BME280;59834;52.124;5.422;2023-05-23T02:26:41;102012.56;;;13.89;90.94
71964;BME280;59834;52.124;5.422;2023-05-23T02:29:08;102021.38;;;13.88;91.15
71964;BME280;59834;52.124;5.422;2023-05-23T02:31:36;102013.47;;;13.88;91.05
71964;BME280;59834;52.124;5.422;2023-05-23T02:34:06;102016.09;;;13.88;90.74
71964;BME280;59834;52.124;5.422;2023-05-23T02:36:34;102022.41;;;13.85;90.77
71964;BME280;59834;52.124;5.422;2023-05-23T02:39:03;102023.25;;;13.86;90.90
71964;BME280;59834;52.124;5.422;2023-05-23T02:41:30;102022.13;;;13.90;91.10
71964;BME280;59834;52.124;5.422;2023-05-23T02:43:59;102026.56;;;13.89;90.56
71964;BME280;59834;52.124;5.422;2023-05-23T02:46:26;102020.34;;;13.90;90.90
71964;BME280;59834;52.124;5.422;2023-05-23T02:48:53;102022.72;;;13.95;90.77
71964;BME280;59834;52.124;5.422;2023-05-23T02:51:20;102031.47;;;13.96;90.25
71964;BME280;59834;52.124;5.422;2023-05-23T02:53:49;102026.28;;;13.94;90.16
71964;BME280;59834;52.124;5.422;2023-05-23T02:56:18;102036.81;;;13.94;89.95
71964;BME280;59834;52.124;5.422;2023-05-23T02:58:47;102030.63;;;13.95;89.82
71964;BME280;59834;52.124;5.422;2023-05-23T03:01:16;102035.28;;;13.90;89.76
71964;BME280;59834;52.124;5.422;2023-05-23T03:03:45;102030.88;;;13.90;89.59
71964;BME280;59834;52.124;5.422;2023-05-23T03:06:12;102030.88;;;13.90;89.96
71964;BME280;59834;52.124;5.422;2023-05-23T03:08:40;102038.03;;;13.88;89.76
71964;BME280;59834;52.124;5.422;2023-05-23T03:11:07;102026.56;;;13.89;89.44
71964;BME280;59834;52.124;5.422;2023-05-23T03:13:36;102030.88;;;13.90;89.68
71964;BME280;59834;52.124;5.422;2023-05-23T03:16:03;102030.88;;;13.90;89.65
71964;BME280;59834;52.124;5.422;2023-05-23T03:18:30;102027.56;;;13.87;89.01
71964;BME280;59834;52.124;5.422;2023-05-23T03:21:00;102039.13;;;13.84;89.61
71964;BME280;59834;52.124;5.422;2023-05-23T03:23:27;102036.66;;;13.81;89.42
71964;BME280;59834;52.124;5.422;2023-05-23T03:25:54;102039.41;;;13.80;89.61
71964;BME280;59834;52.124;5.422;2023-05-23T03:28:21;102042.97;;;13.79;89.90
71964;BME280;59834;52.124;5.422;2023-05-23T03:30:51;102041.44;;;13.75;89.92
71964;BME280;59834;52.124;5.422;2023-05-23T03:33:18;102045.19;;;13.71;89.72
71964;BME280;59834;52.124;5.422;2023-05-23T03:35:45;102039.19;;;13.68;89.85
71964;BME280;59834;52.124;5.422;2023-05-23T03:38:11;102043.66;;;13.66;89.65
71964;BME280;59834;52.124;5.422;2023-05-23T03:40:39;102052.50;;;13.65;89.37
71964;BME280;59834;52.124;5.422;2023-05-23T03:43:07;102048.25;;;13.63;89.49
71964;BME280;59834;52.124;5.422;2023-05-23T03:45:34;102053.53;;;13.63;89.36
71964;BME280;59834;52.124;5.422;2023-05-23T03:48:02;102059.56;;;13.65;89.92
71964;BME280;59834;52.124;5.422;2023-05-23T03:50:30;102053.78;;;13.58;89.57
71964;BME280;59834;52.124;5.422;2023-05-23T03:52:57;102060.13;;;13.54;89.36
71964;BME280;59834;52.124;5.422;2023-05-23T03:55:25;102056.94;;;13.49;89.45
71964;BME280;59834;52.124;5.422;2023-05-23T03:57:51;102066.00;;;13.43;88.84
71964;BME280;59834;52.124;5.422;2023-05-23T04:00:19;102067.03;;;13.41;89.61
71964;BME280;59834;52.124;5.422;2023-05-23T04:02:47;102063.56;;;13.40;89.32
71964;BME280;59834;52.124;5.422;2023-05-23T04:05:17;102071.72;;;13.36;89.64
71964;BME280;59834;52.124;5.422;2023-05-23T04:07:45;102076.13;;;13.35;89.33
71964;BME280;59834;52.124;5.422;2023-05-23T04:10:12;102068.25;;;13.35;89.32
71964;BME280;59834;52.124;5.422;2023-05-23T04:12:39;102072.72;;;13.33;89.81
71964;BME280;59834;52.124;5.422;2023-05-23T04:15:07;102083.91;;;13.37;89.58
71964;BME280;59834;52.124;5.422;2023-05-23T04:17:34;102081.13;;;13.40;89.48
71964;BME280;59834;52.124;5.422;2023-05-23T04:20:07;102085.59;;;13.38;89.52
71964;BME280;59834;52.124;5.422;2023-05-23T04:22:42;102086.66;;;13.35;89.77
71964;BME280;59834;52.124;5.422;2023-05-23T04:25:10;102083.66;;;13.26;90.17
71964;BME280;59834;52.124;5.422;2023-05-23T04:27:39;102091.63;;;13.24;89.74
71964;BME280;59834;52.124;5.422;2023-05-23T04:30:07;102096.16;;;13.20;89.81
71964;BME280;59834;52.124;5.422;2023-05-23T04:32:36;102093.53;;;13.20;89.61
71964;BME280;59834;52.124;5.422;2023-05-23T04:35:04;102100.69;;;13.18;89.28
71964;BME280;59834;52.124;5.422;2023-05-23T04:37:32;102106.78;;;13.19;89.69
71964;BME280;59834;52.124;5.422;2023-05-23T04:39:59;102106.00;;;13.17;89.06
71964;BME280;59834;52.124;5.422;2023-05-23T04:42:26;102101.75;;;13.14;88.84
71964;BME280;59834;52.124;5.422;2023-05-23T04:44:54;102108.13;;;13.10;88.96
71964;BME280;59834;52.124;5.422;2023-05-23T04:47:31;102106.59;;;13.06;89.36
71964;BME280;59834;52.124;5.422;2023-05-23T04:50:04;102113.31;;;13.12;89.63
71964;BME280;59834;52.124;5.422;2023-05-23T04:52:32;102113.03;;;13.16;89.25
71964;BME280;59834;52.124;5.422;2023-05-23T04:54:59;102120.25;;;13.13;88.84
71964;BME280;59834;52.124;5.422;2023-05-23T04:57:28;102129.31;;;13.07;88.99
71964;BME280;59834;52.124;5.422;2023-05-23T04:59:59;102132.81;;;13.08;89.10
71964;BME280;59834;52.124;5.422;2023-05-23T05:02:27;102127.56;;;13.08;88.65
71964;BME280;59834;52.124;5.422;2023-05-23T05:04:54;102137.28;;;13.06;88.50
71964;BME280;59834;52.124;5.422;2023-05-23T05:07:21;102151.44;;;13.03;88.42
71964;BME280;59834;52.124;5.422;2023-05-23T05:09:48;102149.13;;;12.97;87.92
71964;BME280;59834;52.124;5.422;2023-05-23T05:12:18;102149.38;;;12.92;87.63
71964;BME280;59834;52.124;5.422;2023-05-23T05:14:46;102160.81;;;12.91;87.29
71964;BME280;59834;52.124;5.422;2023-05-23T05:17:14;102153.09;;;12.88;86.57
71964;BME280;59834;52.124;5.422;2023-05-23T05:19:42;102158.41;;;12.87;86.24
71964;BME280;59834;52.124;5.422;2023-05-23T05:22:09;102164.00;;;12.81;86.39
71964;BME280;59834;52.124;5.422;2023-05-23T05:24:39;102177.06;;;12.82;85.58
71964;BME280;59834;52.124;5.422;2023-05-23T05:27:14;102171.97;;;12.79;85.21
71964;BME280;59834;52.124;5.422;2023-05-23T05:29:42;102179.16;;;12.76;84.94
71964;BME280;59834;52.124;5.422;2023-05-23T05:32:11;102187.03;;;12.76;83.55
71964;BME280;59834;52.124;5.422;2023-05-23T05:34:41;102193.22;;;12.74;83.51
71964;BME280;59834;52.124;5.422;2023-05-23T05:37:14;102194.13;;;12.73;82.66
71964;BME280;59834;52.124;5.422;2023-05-23T05:39:42;102195.72;;;12.78;82.78
71964;BME280;59834;52.124;5.422;2023-05-23T05:42:11;102200.78;;;12.81;82.27
71964;BME280;59834;52.124;5.422;2023-05-23T05:44:40;102190.94;;;12.84;81.94
71964;BME280;59834;52.124;5.422;2023-05-23T05:47:07;102205.81;;;12.85;81.61
71964;BME280;59834;52.124;5.422;2023-05-23T05:49:37;102204.72;;;12.89;81.30
71964;BME280;59834;52.124;5.422;2023-05-23T05:52:05;102207.44;;;12.88;81.38
71964;BME280;59834;52.124;5.422;2023-05-23T05:54:33;102210.41;;;12.97;80.16
71964;BME280;59834;52.124;5.422;2023-05-23T05:57:00;102211.13;;;13.01;79.95
71964;BME280;59834;52.124;5.422;2023-05-23T05:59:27;102219.72;;;13.05;80.33
71964;BME280;59834;52.124;5.422;2023-05-23T06:01:59;102209.88;;;13.08;79.78
71964;BME280;59834;52.124;5.422;2023-05-23T06:04:28;102219.31;;;13.12;79.43
71964;BME280;59834;52.124;5.422;2023-05-23T06:06:55;102229.03;;;13.10;78.81
71964;BME280;59834;52.124;5.422;2023-05-23T06:09:25;102223.34;;;13.02;78.79
71964;BME280;59834;52.124;5.422;2023-05-23T06:11:55;102248.09;;;12.98;78.86
71964;BME280;59834;52.124;5.422;2023-05-23T06:14:27;102235.25;;;12.92;77.77
71964;BME280;59834;52.124;5.422;2023-05-23T06:16:55;102235.16;;;12.93;77.69
71964;BME280;59834;52.124;5.422;2023-05-23T06:19:23;102231.25;;;12.85;77.24
71964;BME280;59834;52.124;5.422;2023-05-23T06:21:53;102233.72;;;12.88;77.44
71964;BME280;59834;52.124;5.422;2023-05-23T06:24:20;102235.16;;;12.93;77.71
71964;BME280;59834;52.124;5.422;2023-05-23T06:26:48;102237.41;;;13.01;77.58
71964;BME280;59834;52.124;5.422;2023-05-23T06:29:16;102232.31;;;12.98;77.78
71964;BME280;59834;52.124;5.422;2023-05-23T06:31:50;102234.59;;;13.04;78.20
71964;BME280;59834;52.124;5.422;2023-05-23T06:34:17;102233.31;;;12.95;78.19
71964;BME280;59834;52.124;5.422;2023-05-23T06:36:47;102233.47;;;12.92;78.22
71964;BME280;59834;52.124;5.422;2023-05-23T06:39:14;102235.31;;;12.90;78.47
71964;BME280;59834;52.124;5.422;2023-05-23T06:41:41;102231.84;;;12.90;78.42
71964;BME280;59834;52.124;5.422;2023-05-23T06:44:08;102239.66;;;12.91;79.38
71964;BME280;59834;52.124;5.422;2023-05-23T06:46:35;102235.25;;;12.92;78.58
71964;BME280;59834;52.124;5.422;2023-05-23T06:49:08;102238.78;;;12.91;78.94
71964;BME280;59834;52.124;5.422;2023-05-23T06:51:40;102242.19;;;12.93;78.80
71964;BME280;59834;52.124;5.422;2023-05-23T06:54:11;102251.03;;;12.92;79.27
71964;BME280;59834;52.124;5.422;2023-05-23T06:56:40;102250.38;;;12.87;79.75
71964;BME280;59834;52.124;5.422;2023-05-23T06:59:07;102242.06;;;12.79;80.15
71964;BME280;59834;52.124;5.422;2023-05-23T07:01:36;102254.56;;;12.73;80.53
71964;BME280;59834;52.124;5.422;2023-05-23T07:04:02;102250.25;;;12.72;80.64
71964;BME280;59834;52.124;5.422;2023-05-23T07:06:29;102252.78;;;12.74;80.99
71964;BME280;59834;52.124;5.422;2023-05-23T07:08:59;102261.38;;;12.78;81.54
71964;BME280;59834;52.124;5.422;2023-05-23T07:11:26;102257.59;;;12.83;81.58
71964;BME280;59834;52.124;5.422;2023-05-23T07:13:53;102258.50;;;12.82;82.04
71964;BME280;59834;52.124;5.422;2023-05-23T07:16:21;102265.69;;;12.79;82.74
71964;BME280;59834;52.124;5.422;2023-05-23T07:18:51;102273.44;;;12.82;83.31
71964;BME280;59834;52.124;5.422;2023-05-23T07:21:18;102281.69;;;12.74;82.71
71964;BME280;59834;52.124;5.422;2023-05-23T07:23:48;102283.75;;;12.67;81.93
71964;BME280;59834;52.124;5.422;2023-05-23T07:26:16;102283.47;;;12.73;82.19
71964;BME280;59834;52.124;5.422;2023-05-23T07:28:43;102277.16;;;12.78;80.39
71964;BME280;59834;52.124;5.422;2023-05-23T07:31:10;102273.03;;;12.89;78.95
71964;BME280;59834;52.124;5.422;2023-05-23T07:33:39;102279.44;;;12.84;77.66
71964;BME280;59834;52.124;5.422;2023-05-23T07:36:06;102287.81;;;13.09;76.90
71964;BME280;59834;52.124;5.422;2023-05-23T07:38:33;102278.06;;;13.11;73.54
71964;BME280;59834;52.124;5.422;2023-05-23T07:41:00;102276.03;;;13.16;75.07
71964;BME280;59834;52.124;5.422;2023-05-23T07:43:37;102288.75;;;13.08;73.94
71964;BME280;59834;52.124;5.422;2023-05-23T07:46:04;102282.31;;;13.14;74.24
71964;BME280;59834;52.124;5.422;2023-05-23T07:48:33;102279.81;;;13.11;72.80
71964;BME280;59834;52.124;5.422;2023-05-23T07:51:03;102277.38;;;13.08;73.10
71964;BME280;59834;52.124;5.422;2023-05-23T07:53:30;102281.69;;;13.09;71.83
71964;BME280;59834;52.124;5.422;2023-05-23T07:55:57;102302.28;;;13.18;71.28
71964;BME280;59834;52.124;5.422;2023-05-23T07:58:37;102299.97;;;13.29;70.46
71964;BME280;59834;52.124;5.422;2023-05-23T08:01:04;102284.88;;;13.33;70.27
71964;BME280;59834;52.124;5.422;2023-05-23T08:03:31;102293.03;;;13.44;70.75
71964;BME280;59834;52.124;5.422;2023-05-23T08:05:58;102298.34;;;13.60;69.80
71964;BME280;59834;52.124;5.422;2023-05-23T08:08:25;102290.94;;;13.51;70.04
71964;BME280;59834;52.124;5.422;2023-05-23T08:10:52;102288.56;;;13.46;70.22
71964;BME280;59834;52.124;5.422;2023-05-23T08:13:19;102300.81;;;13.63;70.19
71964;BME280;59834;52.124;5.422;2023-05-23T08:15:46;102300.72;;;13.64;69.13
71964;BME280;59834;52.124;5.422;2023-05-23T08:18:13;102312.50;;;13.57;70.40
71964;BME280;59834;52.124;5.422;2023-05-23T08:20:40;102304.56;;;13.59;69.02
71964;BME280;59834;52.124;5.422;2023-05-23T08:23:07;102294.34;;;13.53;69.53
71964;BME280;59834;52.124;5.422;2023-05-23T08:25:34;102314.09;;;13.44;68.88
71964;BME280;59834;52.124;5.422;2023-05-23T08:28:03;102312.09;;;13.32;70.13
71964;BME280;59834;52.124;5.422;2023-05-23T08:30:32;102315.03;;;13.43;69.81
71964;BME280;59834;52.124;5.422;2023-05-23T08:33:00;102312.59;;;13.56;69.41
71964;BME280;59834;52.124;5.422;2023-05-23T08:35:31;102311.72;;;13.73;69.01
71964;BME280;59834;52.124;5.422;2023-05-23T08:38:06;102315.66;;;13.97;67.94
71964;BME280;59834;52.124;5.422;2023-05-23T08:40:44;102324.66;;;13.93;67.00
71964;BME280;59834;52.124;5.422;2023-05-23T08:43:18;102329.03;;;13.77;66.86
71964;BME280;59834;52.124;5.422;2023-05-23T08:45:50;102326.41;;;13.77;67.69
71964;BME280;59834;52.124;5.422;2023-05-23T08:48:19;102333.03;;;13.84;67.69
71964;BME280;59834;52.124;5.422;2023-05-23T08:50:47;102333.81;;;13.86;66.34
71964;BME280;59834;52.124;5.422;2023-05-23T08:53:15;102326.34;;;13.94;65.96
71964;BME280;59834;52.124;5.422;2023-05-23T08:55:46;102329.25;;;14.21;65.77
71964;BME280;59834;52.124;5.422;2023-05-23T08:58:14;102341.50;;;14.22;64.82
71964;BME280;59834;52.124;5.422;2023-05-23T09:00:42;102344.81;;;14.26;65.17
71964;BME280;59834;52.124;5.422;2023-05-23T09:03:11;102345.06;;;14.37;64.86
71964;BME280;59834;52.124;5.422;2023-05-23T09:05:42;102347.69;;;14.37;64.99
71964;BME280;59834;52.124;5.422;2023-05-23T09:08:13;102353.22;;;14.17;65.24
71964;BME280;59834;52.124;5.422;2023-05-23T09:10:41;102343.94;;;14.09;66.47
71964;BME280;59834;52.124;5.422;2023-05-23T09:13:14;102353.56;;;14.26;64.74
71964;BME280;59834;52.124;5.422;2023-05-23T09:16:06;102352.88;;;14.23;63.98
71964;BME280;59834;52.124;5.422;2023-05-23T09:21:11;102353.09;;;14.97;60.84
71964;BME280;59834;52.124;5.422;2023-05-23T09:23:39;102357.88;;;15.21;61.07
71964;BME280;59834;52.124;5.422;2023-05-23T09:26:11;102348.97;;;15.38;59.77
71964;BME280;59834;52.124;5.422;2023-05-23T09:28:42;102359.06;;;15.15;59.74
71964;BME280;59834;52.124;5.422;2023-05-23T09:31:17;102366.59;;;15.51;60.60
71964;BME280;59834;52.124;5.422;2023-05-23T09:34:07;102362.84;;;15.55;58.67
71964;BME280;59834;52.124;5.422;2023-05-23T09:36:39;102365.75;;;15.37;59.01
71964;BME280;59834;52.124;5.422;2023-05-23T09:39:11;102366.66;;;15.36;61.00
71964;BME280;59834;52.124;5.422;2023-05-23T09:41:37;102367.75;;;15.62;60.60
71964;BME280;59834;52.124;5.422;2023-05-23T09:44:08;102365.88;;;15.49;59.63
71964;BME280;59834;52.124;5.422;2023-05-23T09:46:38;102365.28;;;15.59;58.87
71964;BME280;59834;52.124;5.422;2023-05-23T09:49:25;102366.59;;;15.51;57.90
71964;BME280;59834;52.124;5.422;2023-05-23T09:51:58;102368.03;;;15.13;59.19
71964;BME280;59834;52.124;5.422;2023-05-23T09:54:25;102372.56;;;15.25;57.40
71964;BME280;59834;52.124;5.422;2023-05-23T09:56:55;102370.28;;;15.19;57.48
71964;BME280;59834;52.124;5.422;2023-05-23T09:59:28;102362.78;;;15.71;56.58
71964;BME280;59834;52.124;5.422;2023-05-23T10:01:59;102375.81;;;16.03;55.99
71964;BME280;59834;52.124;5.422;2023-05-23T10:04:30;102372.50;;;15.85;56.81
71964;BME280;59834;52.124;5.422;2023-05-23T10:07:09;102388.84;;;15.47;58.40
71964;BME280;59834;52.124;5.422;2023-05-23T10:09:46;102382.44;;;15.51;56.87
71964;BME280;59834;52.124;5.422;2023-05-23T10:15:04;102371.75;;;15.97;54.82
71964;BME280;59834;52.124;5.422;2023-05-23T10:20:04;102377.50;;;16.18;53.73
71964;BME280;59834;52.124;5.422;2023-05-23T10:22:35;102377.66;;;16.30;54.76
71964;BME280;59834;52.124;5.422;2023-05-23T10:25:05;102382.31;;;16.12;56.27
71964;BME280;59834;52.124;5.422;2023-05-23T10:27:38;102393.06;;;15.94;57.05
71964;BME280;59834;52.124;5.422;2023-05-23T10:30:09;102394.41;;;15.73;58.69
71964;BME280;59834;52.124;5.422;2023-05-23T10:32:38;102386.38;;;15.74;58.57
71964;BME280;59834;52.124;5.422;2023-05-23T10:35:27;102398.34;;;15.80;59.38
71964;BME280;59834;52.124;5.422;2023-05-23T10:41:40;102390.16;;;15.85;57.28
71964;BME280;59834;52.124;5.422;2023-05-23T10:49:43;102396.00;;;16.04;56.10
71964;BME280;59834;52.124;5.422;2023-05-23T10:52:15;102401.72;;;15.68;55.93
71964;BME280;59834;52.124;5.422;2023-05-23T10:54:49;102400.03;;;15.67;57.02
71964;BME280;59834;52.124;5.422;2023-05-23T10:57:21;102400.78;;;15.69;56.59
71964;BME280;59834;52.124;5.422;2023-05-23T10:59:51;102394.91;;;15.64;56.84
71964;BME280;59834;52.124;5.422;2023-05-23T11:02:25;102401.72;;;15.82;56.26
71964;BME280;59834;52.124;5.422;2023-05-23T11:05:18;102402.41;;;16.00;56.44
71964;BME280;59834;52.124;5.422;2023-05-23T11:08:23;102398.53;;;16.06;56.91
71964;BME280;59834;52.124;5.422;2023-05-23T11:11:10;102404.00;;;16.02;56.80
71964;BME280;59834;52.124;5.422;2023-05-23T11:13:56;102407.41;;;16.33;54.79
71964;BME280;59834;52.124;5.422;2023-05-23T11:16:30;102394.00;;;16.22;54.31
71964;BME280;59834;52.124;5.422;2023-05-23T11:19:20;102389.66;;;16.77;52.37
71964;BME280;59834;52.124;5.422;2023-05-23T11:22:01;102385.41;;;16.60;52.01
71964;BME280;59834;52.124;5.422;2023-05-23T11:24:53;102399.66;;;16.16;53.81
71964;BME280;59834;52.124;5.422;2023-05-23T11:27:34;102400.53;;;15.88;54.06
71964;BME280;59834;52.124;5.422;2023-05-23T11:30:10;102405.78;;;15.88;54.12
71964;BME280;59834;52.124;5.422;2023-05-23T11:32:40;102404.19;;;15.85;54.67
71964;BME280;59834;52.124;5.422;2023-05-23T11:35:10;102401.53;;;15.85;53.19
71964;BME280;59834;52.124;5.422;2023-05-23T11:37:38;102406.09;;;15.83;54.07
71964;BME280;59834;52.124;5.422;2023-05-23T11:40:44;102402.50;;;15.98;55.49
71964;BME280;59834;52.124;5.422;2023-05-23T11:43:15;102407.38;;;16.19;54.42
71964;BME280;59834;52.124;5.422;2023-05-23T11:45:43;102399.56;;;16.17;52.96
71964;BME280;59834;52.124;5.422;2023-05-23T11:48:16;102413.06;;;15.98;53.71
71964;BME280;59834;52.124;5.422;2023-05-23T11:53:12;102404.38;;;16.11;53.85
71964;BME280;59834;52.124;5.422;2023-05-23T11:55:54;102408.00;;;16.10;53.64
71964;BME280;59834;52.124;5.422;2023-05-23T11:58:34;102407.97;;;15.95;54.38
71964;BME280;59834;52.124;5.422;2023-05-23T12:01:05;102417.03;;;15.91;53.87
71964;BME280;59834;52.124;5.422;2023-05-23T12:03:46;102419.03;;;16.16;53.23
71964;BME280;59834;52.124;5.422;2023-05-23T12:06:20;102410.31;;;16.14;52.67
71964;BME280;59834;52.124;5.422;2023-05-23T12:08:47;102419.78;;;15.90;54.31
71964;BME280;59834;52.124;5.422;2023-05-23T12:11:15;102416.94;;;15.93;54.68
71964;BME280;59834;52.124;5.422;2023-05-23T12:13:44;102417.22;;;16.17;53.24
71964;BME280;59834;52.124;5.422;2023-05-23T12:16:12;102418.53;;;16.24;51.41
71964;BME280;59834;52.124;5.422;2023-05-23T12:18:41;102414.16;;;16.52;51.14
71964;BME280;59834;52.124;5.422;2023-05-23T12:21:08;102417.97;;;16.33;49.05
71964;BME280;59834;52.124;5.422;2023-05-23T12:23:35;102419.09;;;16.29;50.49
71964;BME280;59834;52.124;5.422;2023-05-23T12:26:09;102419.09;;;16.29;51.08
71964;BME280;59834;52.124;5.422;2023-05-23T12:28:40;102428.56;;;16.75;51.16
71964;BME280;59834;52.124;5.422;2023-05-23T12:31:16;102427.47;;;16.91;51.43
71964;BME280;59834;52.124;5.422;2023-05-23T12:33:44;102418.44;;;16.81;51.17
71964;BME280;59834;52.124;5.422;2023-05-23T12:36:20;102423.38;;;16.59;51.60
71964;BME280;59834;52.124;5.422;2023-05-23T12:38:48;102430.84;;;16.52;50.43
71964;BME280;59834;52.124;5.422;2023-05-23T12:41:16;102434.94;;;16.43;50.70
71964;BME280;59834;52.124;5.422;2023-05-23T12:43:49;102431.69;;;16.67;48.96
71964;BME280;59834;52.124;5.422;2023-05-23T12:46:22;102427.22;;;16.82;49.04
71964;BME280;59834;52.124;5.422;2023-05-23T12:48:51;102429.69;;;16.56;48.89
71964;BME280;59834;52.124;5.422;2023-05-23T12:51:19;102438.41;;;16.30;50.27
71964;BME280;59834;52.124;5.422;2023-05-23T12:53:47;102432.38;;;16.42;51.60
71964;BME280;59834;52.124;5.422;2023-05-23T12:56:14;102436.34;;;16.35;51.55
71964;BME280;59834;52.124;5.422;2023-05-23T12:58:41;102446.25;;;16.02;53.44
71964;BME280;59834;52.124;5.422;2023-05-23T13:01:09;102447.31;;;16.00;53.24
71964;BME280;59834;52.124;5.422;2023-05-23T13:03:36;102436.84;;;16.27;50.96
71964;BME280;59834;52.124;5.422;2023-05-23T13:06:05;102428.47;;;16.62;50.34
71964;BME280;59834;52.124;5.422;2023-05-23T13:08:33;102428.78;;;16.57;49.87
71964;BME280;59834;52.124;5.422;2023-05-23T13:11:02;102429.91;;;16.53;51.19
71964;BME280;59834;52.124;5.422;2023-05-23T13:13:32;102426.56;;;16.78;49.37
71964;BME280;59834;52.124;5.422;2023-05-23T13:15:59;102434.88;;;16.72;48.59
71964;BME280;59834;52.124;5.422;2023-05-23T13:18:26;102436.47;;;16.33;49.24
71964;BME280;59834;52.124;5.422;2023-05-23T13:20:53;102438.16;;;16.06;48.47
71964;BME280;59834;52.124;5.422;2023-05-23T13:23:20;102437.59;;;15.86;49.06
71964;BME280;59834;52.124;5.422;2023-05-23T13:25:52;102433.50;;;15.66;50.55
71964;BME280;59834;52.124;5.422;2023-05-23T13:28:19;102444.06;;;15.66;51.13